METAR stanice u blizini

 

LYBE - Beograd / Surčin, Srbija
Ažurirano: 12/12/2019 04:30
Partly Cloudy
Partly Cloudy
 Pravac vetra J
Vetar: J 4 km/h
Temperatura: 1°C
Tačka rose: 1°C
Vlažnost: 100%
Pritisak: 1009 hPa
Oblaci: Partly Cloudy
Vidljivost: 6 km
2019/12/12 03:30 LYBE 120330Z 17002KT 6000 NSC 01/01 Q1009 NOSIG
LYBT - Beograd / Batajnica, Srbija
Ažurirano: 12/12/2019 04:30
Mist, Delimično oblačno
Mist, Delimično oblačno
 Pravac vetra SSI
Vetar: SSI 6 km/h
Temperatura: 1°C
Tačka rose: 1°C
Vlažnost: 100%
Pritisak: 1009 hPa
Pregled: Mist
Oblaci: Partly Cloudy
Vidljivost: 4 km
2019/12/12 03:30 LYBT 120330Z 02003KT 4000 BR NSC 01/01 Q1009 NOSIG
LYVR - Vršac, Srbija
Ažurirano: 12/12/2019 04:30
Mist, Delimično oblačno
Mist, Delimično oblačno
 Pravac vetra calm
Vetar: Tišina
Temperatura: 0°C
Tačka rose: 0°C
Vlažnost: 100%
Pritisak: 1009 hPa
Pregled: Mist
Oblaci: Partly Cloudy
Vidljivost: 5 km
2019/12/12 03:30 LYVR 120330Z AUTO 00000KT 5000 BR NSC 00/00 Q1009
 
LYKV - Lađevci, Srbija
Ažurirano: 12/12/2019 04:30
Mostly Cloudy
Mostly Cloudy
 Pravac vetra varies
Vetar: varies 4 km/h
Temperatura: 2°C
Tačka rose: 2°C
Vlažnost: 100%
Pritisak: 1008 hPa
Oblaci: Mostly Cloudy
Vidljivost: 6 km
Cloud details: Mostly Cloudy 396 m
2019/12/12 03:30 LYKV 120330Z VRB02KT 6000 BKN013 02/02 Q1008 NOSIG
LYNI - Niš, Srbija
Ažurirano: 12/12/2019 04:30
Oblačno
Oblačno
 Pravac vetra SI
Vetar: SI 4 km/h
Temperatura: 3°C
Tačka rose: 2°C
Vlažnost: 93%
Pritisak: 1009 hPa
Oblaci: Oblačno
Vidljivost: 6 km
Cloud details: Oblačno 213 m
2019/12/12 03:30 LYNI 120330Z 04002KT 6000 OVC007 03/02 Q1009 NOSIG
BKPR - Priština, Srbija
Ažurirano: 12/12/2019 05:00
Mostly Cloudy
Mostly Cloudy
 Pravac vetra S
Vetar: S 7 km/h
Temperatura: 2°C
Osećaj hladnoće: 0°C
Tačka rose: 0°C
Vlažnost: 87%
Pritisak: 1007 hPa
Oblaci: Mostly Cloudy
Vidljivost: 8 km
Cloud details: Partly Cloudy 244 m
Mostly Cloudy 762 m
2019/12/12 04:00 BKPR 120400Z 35004KT 8000 SCT008 BKN025 02/M00 Q1007 TEMPO 3000 BR RMK 17010095
 
LHPP - Pecs / Pogany, Hungary
Ažurirano: 11/12/2019 18:45
NOT Current
Vedro
Vedro
 Pravac vetra calm
Vetar: Tišina
Temperatura: 1°C
Tačka rose: -1°C
Vlažnost: 87%
Pritisak: 1014 hPa
Pregled: Vedro
Vidljivost: greater than 10 km
2019/12/11 17:45 LHPP 111745Z 00000KT CAVOK 01/M01 Q1014
LHUD - Szeged, Hungary
Ažurirano: 04/07/2019 01:45
NOT Current
Vedro
Vedro
 Pravac vetra S
Vetar: S 7 km/h
Temperatura: 18°C
Tačka rose: 13°C
Vlažnost: 73%
Pritisak: 1019 hPa
Pregled: Vedro
Vidljivost: greater than 10 km
2019/07/03 23:45 LHUD 032345Z 35004KT CAVOK 18/13 Q1019
LRTR - Timisoara, Romania
Ažurirano: 12/12/2019 04:30
Magla, Oblačno
Magla, Oblačno
 Pravac vetra IJI
Vetar: IJI 13 km/h
Temperatura: 1°C
Osećaj hladnoće: -3°C
Tačka rose: 1°C
Vlažnost: 100%
Pritisak: 1010 hPa
Pregled: Magla
Oblaci: Oblačno
Vidljivost: 0 km
Cloud details: Oblačno 30 m
2019/12/12 03:30 LRTR 120330Z 11007KT 0250 R11/0650N R29/0700N FG VV001 01/01 Q1010 TEMPO 0150 FG
 
LRCV - Craiova, Romania
Ažurirano: 12/12/2019 04:30
Oblačno
Oblačno
 Pravac vetra I
Vetar: I 24 km/h
Temperatura: 5°C
Osećaj hladnoće: 1°C
Tačka rose: 4°C
Vlažnost: 93%
Pritisak: 1011 hPa
Oblaci: Oblačno
Vidljivost: 10 km
Cloud details: Mostly Cloudy 122 m
Oblačno 183 m
2019/12/12 03:30 LRCV 120330Z 10013KT 9999 BKN004 OVC006 05/04 Q1011 R27/29//95
LBSF - Sofia, Bulgaria
Ažurirano: 12/12/2019 05:00
Oblačno
Oblačno
 Pravac vetra IJI
Vetar: IJI 11 km/h
Temperatura: 5°C
Osećaj hladnoće: 2°C
Tačka rose: 4°C
Vlažnost: 93%
Pritisak: 1008 hPa
Oblaci: Oblačno
Vidljivost: 8 km
Cloud details: Partly Cloudy 366 m
Oblačno 457 m
2019/12/12 04:00 LBSF 120400Z 12006KT 8000 SCT012 OVC015 05/04 Q1008 R99/2///95
LWSK - Skoplje, Makedonija
Ažurirano: 12/12/2019 05:00
Oblačno
Oblačno
 Pravac vetra calm
Vetar: Tišina
Temperatura: 4°C
Tačka rose: 3°C
Vlažnost: 93%
Pritisak: 1009 hPa
Oblaci: Oblačno
Vidljivost: 7 km
Cloud details: Partly Cloudy 396 m
Oblačno 1311 m
2019/12/12 04:00 LWSK 120400Z 00000KT 7000 SCT013 OVC043 04/03 Q1009 NOSIG
 
LYPG - Podgorica, Crna Gora
Ažurirano: 12/12/2019 04:30
Few Clouds
Few Clouds
 Pravac vetra varies
Vetar: varies 2 km/h
Temperatura: 5°C
Tačka rose: 1°C
Vlažnost: 76%
Pritisak: 1006 hPa
Oblaci: Few Clouds
Vidljivost: 10 km
Cloud details: Few Clouds 2438 m
2019/12/12 03:30 LYPG 120330Z VRB01KT 9999 FEW080 05/01 Q1006 NOSIG
LQSA - Sarajevo, Bosna i Hercegovina
Ažurirano: 12/12/2019 04:00
Mist, Oblačno
Mist, Oblačno
 Pravac vetra varies
Vetar: varies 2 km/h
Temperatura: -1°C
Tačka rose: -1°C
Vlažnost: 100%
Pritisak: 1006 hPa
Pregled: Mist
Oblaci: Oblačno
Vidljivost: 2 km
Cloud details: Oblačno 61 m
2019/12/12 03:00 LQSA 120300Z VRB01KT 1500 BR OVC002 M01/M01 Q1006
LDOS - Osijek, Hrvatksa
Ažurirano: 12/12/2019 04:30
Mostly Cloudy
Mostly Cloudy
 Pravac vetra ISI
Vetar: ISI 7 km/h
Temperatura: 3°C
Osećaj hladnoće: 1°C
Tačka rose: 2°C
Vlažnost: 93%
Pritisak: 1009 hPa
Oblaci: Mostly Cloudy
Vidljivost: 10 km
Cloud details: Mostly Cloudy 1006 m
2019/12/12 03:30 LDOS 120330Z 07004KT 9999 BKN033 03/02 Q1009